createdAt,value
2023-01-27T02:23:39.642Z,504.00
2023-01-27T02:24:39.633Z,507.00
2023-01-27T02:25:39.582Z,507.00
2023-01-27T02:26:39.555Z,506.00
2023-01-27T02:27:39.528Z,504.00
2023-01-27T02:28:39.502Z,503.00
2023-01-27T02:29:39.476Z,506.00
2023-01-27T02:30:39.540Z,509.00
2023-01-27T02:31:39.625Z,504.00
2023-01-27T02:32:40.287Z,506.00
2023-01-27T02:33:39.350Z,503.00
2023-01-27T02:34:39.324Z,503.00
2023-01-27T02:35:39.280Z,508.00
2023-01-27T02:36:39.252Z,504.00
2023-01-27T02:37:39.235Z,501.00
2023-01-27T02:38:39.189Z,506.00
2023-01-27T02:39:39.162Z,505.00
2023-01-27T02:40:39.140Z,504.00
2023-01-27T02:41:39.111Z,508.00
2023-01-27T02:42:39.088Z,504.00
2023-01-27T02:43:39.035Z,500.00
2023-01-27T02:44:39.011Z,508.00
2023-01-27T02:45:38.979Z,509.00
2023-01-27T02:46:38.970Z,508.00
2023-01-27T02:47:38.912Z,509.00
2023-01-27T02:48:38.875Z,507.00
2023-01-27T02:49:38.839Z,503.00
2023-01-27T02:50:38.805Z,506.00
2023-01-27T02:51:38.787Z,509.00
2023-01-27T02:52:38.736Z,506.00
2023-01-27T02:53:38.698Z,504.00
2023-01-27T02:54:38.666Z,509.00
2023-01-27T02:55:39.392Z,505.00
2023-01-27T02:56:38.627Z,506.00
2023-01-27T02:57:38.574Z,510.00
2023-01-27T02:58:38.547Z,506.00
2023-01-27T02:59:38.525Z,507.00
2023-01-27T03:00:38.496Z,506.00
2023-01-27T03:01:38.493Z,505.00
2023-01-27T03:02:38.471Z,510.00
2023-01-27T03:03:38.399Z,506.00
2023-01-27T03:04:38.387Z,501.00
2023-01-27T03:05:38.333Z,501.00
2023-01-27T03:06:38.324Z,506.00
2023-01-27T03:07:38.286Z,503.00
2023-01-27T03:08:38.266Z,505.00
2023-01-27T03:09:38.237Z,502.00
2023-01-27T03:10:38.201Z,503.00
2023-01-27T03:11:38.177Z,500.00
2023-01-27T03:12:38.150Z,501.00
2023-01-27T03:13:38.167Z,508.00
2023-01-27T03:14:38.105Z,504.00
2023-01-27T03:15:38.103Z,504.00
2023-01-27T03:16:38.055Z,507.00
2023-01-27T03:17:38.017Z,508.00
2023-01-27T03:18:38.019Z,505.00
2023-01-27T03:19:37.965Z,505.00
2023-01-27T03:20:37.941Z,504.00
2023-01-27T03:21:37.908Z,505.00
2023-01-27T03:22:37.883Z,506.00
2023-01-27T03:23:37.855Z,506.00
2023-01-27T03:24:39.588Z,505.00
2023-01-27T03:25:37.809Z,508.00
2023-01-27T03:26:37.768Z,514.00
2023-01-27T03:27:37.754Z,512.00
2023-01-27T03:28:37.731Z,512.00
2023-01-27T03:29:37.699Z,503.00
2023-01-27T03:30:37.816Z,503.00
2023-01-27T03:31:37.756Z,505.00
2023-01-27T03:32:37.602Z,506.00
2023-01-27T03:33:37.580Z,508.00
2023-01-27T03:34:37.573Z,509.00
2023-01-27T03:35:37.558Z,507.00
2023-01-27T03:36:37.496Z,503.00
2023-01-27T03:37:38.310Z,503.00
2023-01-27T03:38:37.445Z,508.00
2023-01-27T03:39:37.469Z,503.00
2023-01-27T03:40:37.393Z,503.00
2023-01-27T03:41:37.369Z,504.00
2023-01-27T03:42:37.340Z,508.00
2023-01-27T03:43:37.739Z,502.00
2023-01-27T03:44:37.312Z,505.00
2023-01-27T03:45:37.270Z,500.00
2023-01-27T03:46:37.242Z,509.00
2023-01-27T03:47:37.216Z,502.00
2023-01-27T03:48:37.200Z,508.00
2023-01-27T03:49:37.172Z,503.00
2023-01-27T03:50:37.193Z,507.00
2023-01-27T03:51:37.118Z,507.00
2023-01-27T03:52:37.099Z,504.00
2023-01-27T03:53:37.068Z,502.00
2023-01-27T03:54:37.070Z,504.00
2023-01-27T03:55:37.014Z,500.00
2023-01-27T03:56:36.981Z,506.00
2023-01-27T03:57:36.979Z,502.00
2023-01-27T03:58:36.954Z,507.00
2023-01-27T03:59:36.949Z,503.00
2023-01-27T04:00:36.876Z,506.00
2023-01-27T04:01:36.917Z,505.00
2023-01-27T04:02:36.881Z,504.00
2023-01-27T04:03:36.804Z,509.00
2023-01-27T04:04:36.780Z,505.00
2023-01-27T04:05:36.733Z,509.00
2023-01-27T04:06:36.730Z,510.00
2023-01-27T04:07:36.678Z,507.00
2023-01-27T04:08:36.661Z,508.00
2023-01-27T04:09:36.655Z,509.00
2023-01-27T04:10:36.593Z,509.00
2023-01-27T04:11:36.588Z,508.00
2023-01-27T04:12:36.528Z,512.00
2023-01-27T04:13:36.502Z,505.00
2023-01-27T04:14:36.482Z,505.00
2023-01-27T04:15:36.507Z,506.00
2023-01-27T04:16:36.428Z,508.00
2023-01-27T04:17:36.403Z,510.00
2023-01-27T04:18:36.373Z,502.00
2023-01-27T04:19:36.355Z,508.00
2023-01-27T04:20:36.329Z,507.00
2023-01-27T04:21:36.353Z,507.00
2023-01-27T04:22:35.313Z,511.00
2023-01-27T04:23:36.243Z,509.00
2023-01-27T04:24:36.226Z,510.00
2023-01-27T04:25:36.193Z,509.00
2023-01-27T04:26:36.175Z,511.00
2023-01-27T04:27:36.155Z,507.00
2023-01-27T04:28:44.368Z,504.00
2023-01-27T04:29:36.090Z,504.00
2023-01-27T04:30:36.119Z,506.00
2023-01-27T04:31:36.178Z,506.00
2023-01-27T04:32:36.038Z,507.00
2023-01-27T04:33:36.004Z,506.00
2023-01-27T04:34:35.972Z,502.00
2023-01-27T04:35:39.071Z,506.00
2023-01-27T04:36:35.997Z,506.00
2023-01-27T04:37:35.902Z,507.00
2023-01-27T04:38:35.911Z,506.00
2023-01-27T04:39:35.877Z,506.00
2023-01-27T04:40:35.842Z,505.00
2023-01-27T04:41:35.827Z,507.00
2023-01-27T04:42:35.785Z,504.00
2023-01-27T04:43:35.763Z,506.00
2023-01-27T04:44:35.748Z,505.00
2023-01-27T04:45:35.774Z,506.00
2023-01-27T04:46:35.693Z,507.00
2023-01-27T04:47:35.668Z,507.00
2023-01-27T04:48:35.644Z,511.00
2023-01-27T04:49:35.618Z,503.00
2023-01-27T04:50:35.595Z,505.00
2023-01-27T04:51:35.569Z,506.00
2023-01-27T04:52:35.552Z,505.00
2023-01-27T04:53:35.522Z,507.00
2023-01-27T04:54:35.514Z,506.00
2023-01-27T04:55:35.475Z,507.00
2023-01-27T04:56:35.444Z,509.00
2023-01-27T04:57:35.423Z,504.00
2023-01-27T04:58:35.415Z,510.00
2023-01-27T04:59:35.381Z,503.00
2023-01-27T05:00:35.381Z,504.00
2023-01-27T05:01:35.360Z,509.00
2023-01-27T05:02:35.347Z,505.00
2023-01-27T05:03:35.290Z,511.00
2023-01-27T05:04:35.281Z,515.00
2023-01-27T05:05:35.250Z,511.00
2023-01-27T05:06:35.226Z,511.00
2023-01-27T05:07:35.196Z,515.00
2023-01-27T05:08:35.175Z,507.00
2023-01-27T05:09:35.161Z,506.00
2023-01-27T05:10:35.157Z,505.00
2023-01-27T05:11:35.122Z,508.00
2023-01-27T05:12:35.074Z,512.00
2023-01-27T05:13:35.059Z,501.00
2023-01-27T05:14:35.036Z,508.00
2023-01-27T05:15:35.052Z,506.00
2023-01-27T05:16:35.250Z,506.00
2023-01-27T05:17:34.947Z,511.00
2023-01-27T05:18:34.929Z,509.00
2023-01-27T05:19:34.900Z,507.00
2023-01-27T05:20:34.875Z,508.00
2023-01-27T05:21:34.843Z,509.00
2023-01-27T05:22:34.820Z,505.00
2023-01-27T05:23:34.800Z,504.00
2023-01-27T05:24:34.770Z,511.00
2023-01-27T05:25:34.751Z,508.00
2023-01-27T05:26:34.763Z,509.00
2023-01-27T05:27:34.716Z,504.00
2023-01-27T05:28:34.676Z,509.00
2023-01-27T05:29:34.648Z,507.00
2023-01-27T05:30:34.664Z,503.00
2023-01-27T05:31:34.751Z,506.00
2023-01-27T05:32:34.565Z,506.00
2023-01-27T05:33:34.531Z,509.00
2023-01-27T05:34:34.509Z,507.00
2023-01-27T05:35:34.552Z,503.00
2023-01-27T05:36:34.462Z,504.00
2023-01-27T05:37:34.439Z,506.00
2023-01-27T05:38:34.454Z,511.00
2023-01-27T05:39:34.402Z,502.00
2023-01-27T05:40:34.388Z,507.00
2023-01-27T05:41:34.358Z,510.00
2023-01-27T05:42:34.355Z,504.00
2023-01-27T05:43:34.312Z,510.00
2023-01-27T05:44:34.267Z,508.00
2023-01-27T05:45:34.270Z,513.00
2023-01-27T05:46:34.315Z,506.00
2023-01-27T05:47:34.209Z,507.00
2023-01-27T05:48:34.185Z,507.00
2023-01-27T05:49:34.220Z,513.00
2023-01-27T05:50:34.122Z,512.00
2023-01-27T05:51:34.116Z,510.00
2023-01-27T05:52:34.082Z,511.00
2023-01-27T05:53:34.075Z,507.00
2023-01-27T05:54:34.035Z,507.00
2023-01-27T05:55:34.015Z,506.00
2023-01-27T05:56:34.009Z,505.00
2023-01-27T05:57:33.964Z,505.00
2023-01-27T05:58:33.983Z,509.00
2023-01-27T05:59:33.923Z,507.00
2023-01-27T06:00:33.890Z,507.00
2023-01-27T06:01:33.937Z,507.00
2023-01-27T06:02:33.932Z,506.00
2023-01-27T06:03:33.841Z,506.00
2023-01-27T06:04:33.829Z,506.00
2023-01-27T06:05:33.844Z,514.00
2023-01-27T06:06:33.777Z,508.00
2023-01-27T06:07:33.759Z,506.00
2023-01-27T06:08:33.752Z,510.00
2023-01-27T06:09:33.715Z,507.00
2023-01-27T06:10:33.679Z,506.00
2023-01-27T06:11:33.662Z,509.00
2023-01-27T06:12:33.648Z,505.00
2023-01-27T06:13:33.636Z,506.00
2023-01-27T06:14:33.637Z,505.00
2023-01-27T06:15:33.595Z,501.00
2023-01-27T06:16:33.601Z,507.00
2023-01-27T06:17:33.557Z,506.00
2023-01-27T06:18:33.535Z,509.00
2023-01-27T06:19:33.520Z,504.00
2023-01-27T06:20:33.491Z,506.00
2023-01-27T06:21:34.151Z,505.00
2023-01-27T06:22:33.473Z,515.00
2023-01-27T06:23:33.433Z,506.00
2023-01-27T06:24:33.437Z,518.00
2023-01-27T06:25:33.380Z,518.00
2023-01-27T06:26:33.381Z,525.00
2023-01-27T06:27:33.338Z,537.00
2023-01-27T06:28:33.449Z,540.00
2023-01-27T06:29:33.304Z,545.00
2023-01-27T06:30:33.302Z,551.00
2023-01-27T06:31:33.287Z,553.00
2023-01-27T06:32:33.244Z,560.00
2023-01-27T06:33:33.243Z,566.00
2023-01-27T06:34:33.212Z,568.00
2023-01-27T06:35:33.196Z,574.00
2023-01-27T06:36:33.153Z,581.00
2023-01-27T06:37:33.127Z,582.00
2023-01-27T06:38:33.155Z,588.00
2023-01-27T06:39:33.083Z,589.00
2023-01-27T06:40:33.090Z,592.00
2023-01-27T06:41:33.044Z,603.00
2023-01-27T06:42:33.042Z,603.00
2023-01-27T06:43:33.143Z,608.00
2023-01-27T06:44:33.151Z,610.00
2023-01-27T06:45:32.971Z,612.00
2023-01-27T06:46:33.230Z,615.00
2023-01-27T06:47:32.939Z,623.00
2023-01-27T06:48:32.930Z,628.00
2023-01-27T06:49:33.154Z,631.00
2023-01-27T06:50:32.917Z,630.00
2023-01-27T06:51:32.895Z,630.00
2023-01-27T06:52:33.049Z,637.00
2023-01-27T06:53:34.896Z,639.00
2023-01-27T06:54:32.840Z,640.00
2023-01-27T06:55:32.769Z,647.00
2023-01-27T06:56:32.762Z,648.00
2023-01-27T06:57:32.753Z,644.00
2023-01-27T06:58:33.169Z,646.00
2023-01-27T06:59:32.708Z,641.00
2023-01-27T07:00:32.659Z,642.00
2023-01-27T07:01:32.707Z,640.00
2023-01-27T07:02:32.688Z,643.00
2023-01-27T07:03:32.687Z,643.00
2023-01-27T07:04:32.676Z,645.00
2023-01-27T07:05:32.553Z,644.00
2023-01-27T07:06:32.570Z,641.00
2023-01-27T07:07:32.501Z,647.00
2023-01-27T07:08:32.488Z,647.00
2023-01-27T07:09:42.875Z,640.00
2023-01-27T07:10:32.502Z,641.00
2023-01-27T07:11:32.417Z,642.00
2023-01-27T07:12:32.394Z,642.00
2023-01-27T07:13:32.648Z,645.00
2023-01-27T07:14:32.670Z,645.00
2023-01-27T07:15:32.355Z,644.00
2023-01-27T07:16:32.359Z,637.00
2023-01-27T07:17:32.289Z,638.00
2023-01-27T07:18:32.696Z,631.00
2023-01-27T07:19:34.575Z,635.00
2023-01-27T07:20:32.231Z,636.00
2023-01-27T07:21:32.212Z,636.00
2023-01-27T07:22:32.165Z,637.00
2023-01-27T07:23:32.172Z,634.00
2023-01-27T07:24:32.183Z,636.00
2023-01-27T07:25:32.102Z,634.00
2023-01-27T07:26:32.564Z,631.00
2023-01-27T07:27:32.061Z,633.00
2023-01-27T07:28:32.021Z,625.00
2023-01-27T07:29:32.781Z,630.00
2023-01-27T07:30:31.976Z,629.00
2023-01-27T07:31:32.022Z,631.00
2023-01-27T07:32:31.985Z,624.00
2023-01-27T07:33:31.897Z,626.00
2023-01-27T07:34:32.189Z,623.00
2023-01-27T07:35:35.077Z,630.00
2023-01-27T07:36:31.805Z,630.00
2023-01-27T07:37:32.329Z,628.00
2023-01-27T07:38:31.774Z,631.00
2023-01-27T07:39:32.684Z,625.00
2023-01-27T07:40:31.705Z,621.00
2023-01-27T07:41:32.660Z,621.00
2023-01-27T07:42:32.234Z,619.00
2023-01-27T07:43:31.669Z,620.00
2023-01-27T07:44:32.178Z,618.00
2023-01-27T07:45:31.642Z,620.00
2023-01-27T07:46:31.593Z,621.00
2023-01-27T07:47:31.861Z,620.00
2023-01-27T07:48:31.509Z,615.00
2023-01-27T07:49:31.474Z,616.00
2023-01-27T07:50:31.490Z,620.00
2023-01-27T07:52:03.637Z,618.00
2023-01-27T07:52:32.404Z,619.00
2023-01-27T07:53:31.389Z,620.00
2023-01-27T07:54:31.354Z,619.00
2023-01-27T07:55:34.531Z,618.00
2023-01-27T07:56:31.686Z,619.00
2023-01-27T07:57:31.292Z,619.00
2023-01-27T07:58:31.253Z,616.00
2023-01-27T07:59:31.277Z,619.00
2023-01-27T08:00:31.292Z,620.00
2023-01-27T08:01:32.101Z,612.00
2023-01-27T08:02:31.185Z,611.00
2023-01-27T08:03:31.176Z,613.00
2023-01-27T08:04:35.224Z,612.00
2023-01-27T08:05:31.169Z,613.00
2023-01-27T08:06:32.071Z,614.00
2023-01-27T08:07:31.101Z,614.00
2023-01-27T08:08:31.014Z,611.00
2023-01-27T08:09:31.241Z,612.00
2023-01-27T08:10:31.186Z,610.00
2023-01-27T08:11:31.106Z,611.00
2023-01-27T08:12:30.994Z,609.00
2023-01-27T08:13:31.014Z,609.00
2023-01-27T08:14:30.930Z,605.00
2023-01-27T08:15:31.206Z,606.00
2023-01-27T08:16:30.911Z,605.00
2023-01-27T08:17:31.201Z,606.00
2023-01-27T08:18:30.798Z,608.00
2023-01-27T08:19:31.187Z,607.00
2023-01-27T08:20:30.725Z,605.00
2023-01-27T08:21:31.203Z,608.00
2023-01-27T08:22:30.731Z,604.00
2023-01-27T08:23:30.640Z,605.00
2023-01-27T08:24:30.617Z,603.00
2023-01-27T08:25:30.589Z,599.00
2023-01-27T08:26:30.583Z,601.00
2023-01-27T08:27:30.541Z,604.00
2023-01-27T08:28:30.691Z,599.00
2023-01-27T08:29:30.501Z,597.00
2023-01-27T08:30:31.178Z,602.00
2023-01-27T08:31:30.491Z,595.00
2023-01-27T08:32:30.439Z,593.00
2023-01-27T08:33:30.692Z,600.00
2023-01-27T08:34:30.391Z,600.00
2023-01-27T08:35:30.376Z,598.00
2023-01-27T08:36:30.309Z,599.00
2023-01-27T08:37:30.291Z,600.00
2023-01-27T08:38:30.747Z,600.00
2023-01-27T08:39:30.328Z,595.00
2023-01-27T08:40:30.215Z,597.00
2023-01-27T08:41:30.216Z,593.00
2023-01-27T08:43:30.201Z,594.00
2023-01-27T08:44:30.176Z,594.00
2023-01-27T08:45:30.205Z,595.00
2023-01-27T08:46:30.221Z,596.00
2023-01-27T08:47:30.080Z,596.00
2023-01-27T08:48:30.043Z,590.00
2023-01-27T08:49:30.000Z,594.00
2023-01-27T08:50:30.226Z,597.00
2023-01-27T08:51:29.948Z,593.00
2023-01-27T08:52:29.977Z,595.00
2023-01-27T08:53:29.894Z,593.00
2023-01-27T08:54:30.184Z,597.00
2023-01-27T08:55:30.575Z,594.00
2023-01-27T08:56:30.194Z,596.00
2023-01-27T08:57:29.847Z,596.00
2023-01-27T08:58:29.825Z,591.00
2023-01-27T08:59:29.801Z,597.00
2023-01-27T09:00:29.720Z,601.00
2023-01-27T09:01:30.234Z,601.00
2023-01-27T09:02:29.686Z,605.00
2023-01-27T09:03:29.664Z,608.00
2023-01-27T09:04:29.753Z,622.00
2023-01-27T09:05:29.694Z,624.00
2023-01-27T09:06:29.620Z,631.00
2023-01-27T09:07:29.542Z,636.00
2023-01-27T09:08:29.514Z,644.00
2023-01-27T09:09:29.485Z,651.00
2023-01-27T09:10:29.488Z,654.00
2023-01-27T09:11:29.435Z,660.00
2023-01-27T09:12:29.392Z,691.00
2023-01-27T09:13:29.406Z,693.00
2023-01-27T09:14:29.794Z,708.00
2023-01-27T09:15:29.302Z,720.00
2023-01-27T09:16:29.361Z,749.00
2023-01-27T09:17:29.231Z,763.00
2023-01-27T09:18:29.306Z,763.00
2023-01-27T09:19:29.178Z,771.00
2023-01-27T09:20:29.126Z,809.00
2023-01-27T09:21:29.091Z,819.00
2023-01-27T09:22:29.045Z,844.00
2023-01-27T09:23:29.018Z,833.00
2023-01-27T09:24:29.008Z,860.00
2023-01-27T09:25:29.710Z,875.00
2023-01-27T09:26:28.937Z,894.00
2023-01-27T09:27:38.791Z,902.00
2023-01-27T09:28:29.205Z,903.00
2023-01-27T09:29:28.793Z,906.00
2023-01-27T09:30:28.781Z,907.00
2023-01-27T09:31:28.872Z,936.00
2023-01-27T09:32:28.718Z,953.00
2023-01-27T09:33:28.687Z,993.00
2023-01-27T09:34:28.634Z,975.00
2023-01-27T09:35:28.579Z,973.00
2023-01-27T09:36:28.544Z,1040.00
2023-01-27T09:37:28.716Z,1026.00
2023-01-27T09:38:28.476Z,979.00
2023-01-27T09:39:28.487Z,1013.00
2023-01-27T09:40:28.435Z,988.00
2023-01-27T09:41:28.363Z,998.00
2023-01-27T09:42:28.981Z,965.00
2023-01-27T09:43:28.293Z,993.00
2023-01-27T09:44:28.264Z,982.00
2023-01-27T09:45:28.231Z,918.00
2023-01-27T09:46:28.298Z,965.00
2023-01-27T09:47:28.210Z,939.00
2023-01-27T09:48:28.144Z,961.00
2023-01-27T09:49:28.089Z,941.00
2023-01-27T09:50:28.061Z,932.00
2023-01-27T09:51:28.022Z,938.00
2023-01-27T09:52:41.765Z,933.00
2023-01-27T09:53:27.965Z,934.00
2023-01-27T09:54:27.942Z,937.00
2023-01-27T09:55:27.899Z,938.00
2023-01-27T09:56:27.866Z,919.00
2023-01-27T09:57:28.217Z,921.00
2023-01-27T09:58:29.518Z,923.00
2023-01-27T09:59:27.761Z,935.00
2023-01-27T10:00:27.743Z,917.00
2023-01-27T10:01:27.701Z,921.00
2023-01-27T10:02:27.671Z,917.00
2023-01-27T10:03:27.665Z,906.00
2023-01-27T10:04:27.643Z,900.00
2023-01-27T10:05:27.563Z,879.00
2023-01-27T10:06:27.543Z,879.00
2023-01-27T10:07:27.497Z,901.00
2023-01-27T10:08:27.483Z,886.00
2023-01-27T10:09:27.479Z,892.00
2023-01-27T10:10:27.405Z,895.00
2023-01-27T10:11:27.373Z,891.00
2023-01-27T10:12:27.721Z,880.00
2023-01-27T10:13:27.321Z,886.00
2023-01-27T10:14:27.305Z,868.00
2023-01-27T10:15:27.245Z,860.00
2023-01-27T10:16:27.289Z,879.00
2023-01-27T10:17:27.311Z,865.00
2023-01-27T10:18:27.163Z,873.00
2023-01-27T10:19:27.111Z,876.00
2023-01-27T10:20:27.108Z,869.00
2023-01-27T10:21:27.037Z,856.00
2023-01-27T10:22:28.236Z,869.00
2023-01-27T10:23:26.968Z,877.00
2023-01-27T10:24:30.134Z,875.00
2023-01-27T10:25:26.907Z,875.00
2023-01-27T10:26:26.870Z,876.00
2023-01-27T10:27:27.244Z,877.00
2023-01-27T10:28:26.841Z,877.00
2023-01-27T10:29:26.769Z,866.00
2023-01-27T10:30:26.799Z,849.00
2023-01-27T10:31:26.837Z,841.00
2023-01-27T10:32:26.782Z,876.00
2023-01-27T10:33:28.556Z,862.00
2023-01-27T10:34:26.727Z,862.00
2023-01-27T10:35:26.599Z,865.00
2023-01-27T10:36:26.547Z,865.00
2023-01-27T10:37:26.583Z,862.00
2023-01-27T10:38:26.477Z,860.00
2023-01-27T10:39:26.850Z,848.00
2023-01-27T10:40:26.415Z,850.00
2023-01-27T10:41:26.397Z,853.00
2023-01-27T10:42:26.764Z,853.00
2023-01-27T10:43:26.344Z,844.00
2023-01-27T10:44:26.334Z,846.00
2023-01-27T10:45:26.274Z,842.00
2023-01-27T10:46:26.258Z,838.00
2023-01-27T10:47:27.203Z,860.00
2023-01-27T10:48:26.248Z,827.00
2023-01-27T10:49:26.117Z,831.00
2023-01-27T10:50:26.115Z,833.00
2023-01-27T10:51:26.055Z,834.00
2023-01-27T10:52:26.057Z,837.00
2023-01-27T10:53:26.236Z,822.00
2023-01-27T10:54:25.994Z,836.00
2023-01-27T10:55:25.984Z,824.00
2023-01-27T10:56:26.267Z,834.00
2023-01-27T10:57:26.116Z,839.00
2023-01-27T10:58:25.933Z,837.00
2023-01-27T10:59:26.242Z,825.00
2023-01-27T11:01:26.431Z,822.00
2023-01-27T11:02:25.795Z,822.00
2023-01-27T11:03:25.722Z,824.00
2023-01-27T11:04:25.919Z,825.00
2023-01-27T11:05:25.652Z,826.00
2023-01-27T11:06:25.604Z,838.00
2023-01-27T11:07:25.576Z,835.00
2023-01-27T11:08:25.560Z,835.00
2023-01-27T11:09:25.537Z,842.00
2023-01-27T11:10:25.492Z,835.00
2023-01-27T11:11:25.476Z,836.00
2023-01-27T11:12:25.942Z,829.00
2023-01-27T11:13:25.767Z,832.00
2023-01-27T11:14:26.219Z,837.00
2023-01-27T11:15:25.339Z,843.00
2023-01-27T11:16:25.386Z,835.00
2023-01-27T11:17:25.275Z,838.00
2023-01-27T11:18:25.770Z,833.00
2023-01-27T11:19:25.247Z,842.00
2023-01-27T11:20:25.335Z,844.00
2023-01-27T11:21:25.165Z,849.00
2023-01-27T11:22:25.204Z,843.00
2023-01-27T11:23:25.308Z,848.00
2023-01-27T11:24:25.184Z,846.00
2023-01-27T11:25:25.117Z,846.00
2023-01-27T11:26:25.039Z,860.00
2023-01-27T11:27:25.254Z,853.00
2023-01-27T11:28:25.030Z,859.00
2023-01-27T11:29:25.322Z,849.00
2023-01-27T11:30:25.129Z,852.00
2023-01-27T11:31:25.127Z,857.00
2023-01-27T11:32:25.853Z,857.00
2023-01-27T11:33:24.961Z,836.00
2023-01-27T11:34:25.284Z,853.00
2023-01-27T11:35:24.772Z,868.00
2023-01-27T11:36:24.750Z,871.00
2023-01-27T11:37:24.715Z,870.00
2023-01-27T11:38:24.808Z,887.00
2023-01-27T11:39:24.671Z,842.00
2023-01-27T11:40:24.659Z,852.00
2023-01-27T11:41:24.598Z,885.00
2023-01-27T11:42:24.568Z,886.00
2023-01-27T11:43:24.548Z,866.00
2023-01-27T11:44:24.881Z,825.00
2023-01-27T11:45:24.512Z,861.00
2023-01-27T11:46:24.475Z,879.00
2023-01-27T11:47:24.443Z,893.00
2023-01-27T11:48:24.416Z,868.00
2023-01-27T11:49:25.354Z,845.00
2023-01-27T11:50:24.388Z,873.00
2023-01-27T11:51:31.694Z,874.00
2023-01-27T11:52:24.908Z,875.00
2023-01-27T11:53:24.385Z,876.00
2023-01-27T11:54:24.809Z,879.00
2023-01-27T11:55:24.271Z,910.00
2023-01-27T11:56:24.432Z,1185.00
2023-01-27T11:57:24.287Z,1236.00
2023-01-27T11:58:24.109Z,1154.00
2023-01-27T11:59:24.282Z,1227.00
2023-01-27T12:00:24.094Z,1155.00
2023-01-27T12:01:24.563Z,1110.00
2023-01-27T12:02:24.317Z,1160.00
2023-01-27T12:03:23.995Z,1064.00
2023-01-27T12:04:24.891Z,950.00
2023-01-27T12:05:23.910Z,800.00
2023-01-27T12:06:23.913Z,763.00
2023-01-27T12:07:23.848Z,739.00
2023-01-27T12:08:23.827Z,683.00
2023-01-27T12:09:24.272Z,675.00
2023-01-27T12:10:23.799Z,662.00
2023-01-27T12:11:24.780Z,649.00
2023-01-27T12:12:23.761Z,635.00
2023-01-27T12:13:23.745Z,632.00
2023-01-27T12:14:23.773Z,637.00
2023-01-27T12:15:23.706Z,659.00
2023-01-27T12:16:23.919Z,754.00
2023-01-27T12:17:23.678Z,765.00
2023-01-27T12:18:23.685Z,758.00
2023-01-27T12:19:23.783Z,715.00
2023-01-27T12:20:23.673Z,791.00
2023-01-27T12:21:23.664Z,932.00
2023-01-27T12:22:23.685Z,973.00
2023-01-27T12:23:23.740Z,1026.00
2023-01-27T12:24:23.964Z,1018.00
2023-01-27T12:25:23.686Z,1020.00
2023-01-27T12:26:23.690Z,1022.00
2023-01-27T12:27:23.718Z,1014.00
2023-01-27T12:28:23.781Z,1036.00
2023-01-27T12:29:24.499Z,1054.00
2023-01-27T12:30:23.619Z,1058.00
2023-01-27T12:31:24.036Z,1078.00
2023-01-27T12:32:23.593Z,1103.00
2023-01-27T12:33:23.546Z,1106.00
2023-01-27T12:34:23.579Z,1123.00
2023-01-27T12:35:23.774Z,1136.00
2023-01-27T12:36:23.802Z,1150.00
2023-01-27T12:37:23.331Z,1165.00
2023-01-27T12:38:23.311Z,1176.00
2023-01-27T12:39:23.331Z,1197.00
2023-01-27T12:40:23.242Z,1216.00
2023-01-27T12:41:23.307Z,1211.00
2023-01-27T12:42:23.201Z,1221.00
2023-01-27T12:43:23.145Z,1222.00
2023-01-27T12:44:23.380Z,1239.00
2023-01-27T12:45:23.089Z,1250.00
2023-01-27T12:46:23.111Z,1248.00
2023-01-27T12:47:23.092Z,1253.00
2023-01-27T12:48:23.048Z,1254.00
2023-01-27T12:49:22.967Z,1299.00
2023-01-27T12:50:23.001Z,1290.00
2023-01-27T12:51:22.890Z,1310.00
2023-01-27T12:52:22.848Z,1330.00
2023-01-27T12:53:22.814Z,1322.00
2023-01-27T12:54:22.825Z,1306.00
2023-01-27T12:55:22.804Z,1327.00
2023-01-27T12:56:22.714Z,1331.00
2023-01-27T12:57:22.790Z,1363.00
2023-01-27T12:58:22.639Z,1361.00
2023-01-27T12:59:22.596Z,1370.00
2023-01-27T13:00:22.564Z,1385.00
2023-01-27T13:01:22.530Z,1401.00
2023-01-27T13:02:23.203Z,1401.00
2023-01-27T13:03:23.025Z,1411.00
2023-01-27T13:04:22.853Z,1426.00
2023-01-27T13:05:22.829Z,1439.00
2023-01-27T13:06:23.098Z,1443.00
2023-01-27T13:07:23.052Z,1449.00
2023-01-27T13:08:22.292Z,1453.00
2023-01-27T13:09:22.261Z,1499.00
2023-01-27T13:10:22.836Z,1481.00
2023-01-27T13:11:22.143Z,1486.00
2023-01-27T13:12:22.200Z,1474.00
2023-01-27T13:13:22.059Z,1499.00
2023-01-27T13:14:22.026Z,1507.00
2023-01-27T13:15:21.992Z,1498.00
2023-01-27T13:16:22.072Z,1498.00
2023-01-27T13:17:21.901Z,1500.00
2023-01-27T13:18:21.953Z,1500.00
2023-01-27T13:19:21.852Z,1492.00
2023-01-27T13:20:21.802Z,1486.00
2023-01-27T13:21:22.296Z,1469.00
2023-01-27T13:22:21.731Z,1506.00
2023-01-27T13:23:21.669Z,1478.00
2023-01-27T13:24:21.730Z,1464.00
2023-01-27T13:25:21.617Z,1462.00
2023-01-27T13:26:21.567Z,1448.00
2023-01-27T13:27:21.503Z,1387.00
2023-01-27T13:28:21.499Z,1113.00
2023-01-27T13:29:21.434Z,1154.00
2023-01-27T13:30:21.405Z,1016.00
2023-01-27T13:31:21.529Z,863.00
2023-01-27T13:32:21.372Z,779.00
2023-01-27T13:33:21.449Z,654.00
2023-01-27T13:34:21.497Z,622.00
2023-01-27T13:35:21.354Z,629.00
2023-01-27T13:36:21.351Z,656.00
2023-01-27T13:37:21.340Z,655.00
2023-01-27T13:38:21.321Z,673.00
2023-01-27T13:39:21.315Z,724.00
2023-01-27T13:40:21.837Z,721.00
2023-01-27T13:41:21.288Z,725.00
2023-01-27T13:42:21.351Z,749.00
2023-01-27T13:43:21.249Z,769.00
2023-01-27T13:44:21.231Z,788.00
2023-01-27T13:45:21.246Z,817.00
2023-01-27T13:46:21.211Z,844.00
2023-01-27T13:47:21.188Z,867.00
2023-01-27T13:48:21.140Z,882.00
2023-01-27T13:49:21.111Z,887.00
2023-01-27T13:50:21.096Z,919.00
2023-01-27T13:51:21.833Z,942.00
2023-01-27T13:52:21.060Z,941.00
2023-01-27T13:53:21.307Z,962.00
2023-01-27T13:54:20.982Z,970.00
2023-01-27T13:55:20.950Z,993.00
2023-01-27T13:56:20.912Z,978.00
2023-01-27T13:57:20.887Z,1002.00
2023-01-27T13:58:21.338Z,1021.00
2023-01-27T13:59:24.005Z,1028.00
2023-01-27T14:00:20.777Z,1029.00
2023-01-27T14:01:20.786Z,1022.00
2023-01-27T14:02:20.698Z,1034.00
2023-01-27T14:03:20.877Z,1070.00
2023-01-27T14:04:20.631Z,1089.00
2023-01-27T14:05:20.591Z,1082.00
2023-01-27T14:06:20.813Z,1122.00
2023-01-27T14:07:20.502Z,1115.00
2023-01-27T14:08:20.463Z,1127.00
2023-01-27T14:09:20.864Z,1138.00
2023-01-27T14:10:21.171Z,1134.00
2023-01-27T14:11:20.576Z,1172.00
2023-01-27T14:12:20.537Z,1179.00
2023-01-27T14:13:20.496Z,1182.00
2023-01-27T14:14:20.847Z,1186.00
2023-01-27T14:15:20.683Z,1190.00
2023-01-27T14:16:20.439Z,1200.00
2023-01-27T14:17:20.327Z,1222.00
2023-01-27T14:18:20.278Z,1209.00
2023-01-27T14:19:20.237Z,1220.00
2023-01-27T14:20:20.193Z,1217.00
2023-01-27T14:21:38.314Z,1252.00
2023-01-27T14:22:20.110Z,1254.00
2023-01-27T14:23:20.064Z,1259.00
2023-01-27T14:24:20.098Z,1264.00
2023-01-27T14:25:19.979Z,1275.00
2023-01-27T14:26:19.991Z,1296.00
2023-01-27T14:27:19.903Z,1290.00
2023-01-27T14:28:19.885Z,1307.00
2023-01-27T14:29:19.842Z,1312.00
2023-01-27T14:30:19.818Z,1306.00
2023-01-27T14:31:20.043Z,1307.00
2023-01-27T14:32:19.735Z,1330.00
2023-01-27T14:33:19.775Z,1347.00
2023-01-27T14:34:19.714Z,1340.00
2023-01-27T14:35:19.843Z,1357.00
2023-01-27T14:36:19.600Z,1336.00
2023-01-27T14:37:19.729Z,1346.00
2023-01-27T14:38:19.577Z,1355.00
2023-01-27T14:39:19.546Z,1367.00
2023-01-27T14:40:19.387Z,1348.00
2023-01-27T14:41:19.352Z,1353.00
2023-01-27T14:43:18.325Z,1360.00
2023-01-27T14:44:19.311Z,1343.00
2023-01-27T14:45:19.493Z,1372.00
2023-01-27T14:46:19.219Z,1379.00
2023-01-27T14:47:19.126Z,1375.00
2023-01-27T14:48:19.132Z,1374.00
2023-01-27T14:49:19.497Z,1381.00
2023-01-27T14:50:19.055Z,1404.00